createdAt,value
2022-10-09T00:12:44.399Z,10.10
2022-10-09T00:17:44.385Z,10.40
2022-10-09T00:22:44.351Z,10.40
2022-10-09T00:32:44.391Z,11.70
2022-10-09T00:37:44.401Z,8.10
2022-10-09T00:42:44.521Z,8.10
2022-10-09T00:47:47.788Z,10.10
2022-10-09T00:57:45.285Z,11.50
2022-10-09T01:02:44.494Z,11.50
2022-10-09T01:07:51.902Z,10.10
2022-10-09T01:22:59.703Z,9.30
2022-10-09T01:27:44.620Z,11.10
2022-10-09T01:37:46.053Z,8.60
2022-10-09T02:02:45.623Z,8.00
2022-10-09T02:07:44.890Z,9.90
2022-10-09T02:17:48.240Z,8.70
2022-10-09T02:22:46.160Z,8.70
2022-10-09T02:27:45.074Z,8.00
2022-10-09T02:32:44.691Z,8.00
2022-10-09T02:37:44.703Z,8.20
2022-10-09T02:42:44.722Z,8.20
2022-10-09T03:02:44.882Z,9.40
2022-10-09T03:07:50.270Z,8.50
2022-10-09T03:17:44.853Z,9.90
2022-10-09T03:22:44.782Z,9.90
2022-10-09T03:32:44.843Z,8.70
2022-10-09T03:37:44.832Z,8.90
2022-10-09T03:52:44.936Z,9.70
2022-10-09T03:57:44.866Z,8.80
2022-10-09T04:07:45.036Z,8.90
2022-10-09T04:17:44.956Z,9.10
2022-10-09T04:22:45.115Z,9.10
2022-10-09T04:32:47.204Z,7.80
2022-10-09T04:37:45.000Z,8.40
2022-10-09T04:57:45.053Z,9.50
2022-10-09T05:02:45.059Z,9.50
2022-10-09T05:17:45.227Z,7.60
2022-10-09T05:42:48.191Z,10.10
2022-10-09T05:47:45.373Z,10.20
2022-10-09T05:52:45.346Z,10.20
2022-10-09T06:17:45.265Z,10.40
2022-10-09T06:22:45.263Z,10.40
2022-10-09T06:27:45.354Z,13.30
2022-10-09T06:32:45.302Z,13.30
2022-10-09T06:37:45.325Z,14.20
2022-10-09T06:42:45.401Z,14.20
2022-10-09T06:52:45.362Z,15.20
2022-10-09T07:12:45.447Z,12.70
2022-10-09T07:17:45.405Z,14.50
2022-10-09T07:32:45.557Z,14.50
2022-10-09T07:42:45.729Z,15.00
2022-10-09T07:47:45.482Z,14.00
2022-10-09T07:52:45.578Z,14.00
2022-10-09T07:57:45.495Z,16.10
2022-10-09T08:02:45.540Z,16.10
2022-10-09T08:07:45.540Z,14.50
2022-10-09T08:17:45.593Z,13.80
2022-10-09T08:22:45.739Z,13.80
2022-10-09T08:27:45.583Z,15.50
2022-10-09T08:32:46.551Z,15.50
2022-10-09T08:37:45.629Z,14.90
2022-10-09T08:42:55.636Z,14.90
2022-10-09T08:47:56.752Z,12.30
2022-10-09T08:52:56.987Z,12.30
2022-10-09T08:57:49.248Z,15.00
2022-10-09T09:02:57.023Z,15.00
2022-10-09T09:08:05.640Z,12.30
2022-10-09T09:12:52.779Z,12.30
2022-10-09T09:17:53.527Z,11.20
2022-10-09T09:22:48.278Z,11.20
2022-10-09T09:27:46.220Z,12.00
2022-10-09T09:33:05.648Z,11.20
2022-10-09T09:37:46.077Z,11.20
2022-10-09T09:42:46.357Z,11.20
2022-10-09T09:52:46.013Z,11.20
2022-10-09T09:57:46.036Z,9.40
2022-10-09T10:02:45.898Z,9.40
2022-10-09T10:07:49.003Z,9.70
2022-10-09T10:12:51.162Z,9.70
2022-10-09T10:17:47.316Z,11.60
2022-10-09T10:22:51.633Z,11.60
2022-10-09T10:27:49.537Z,11.60
2022-10-09T10:37:54.169Z,9.80
2022-10-09T10:43:00.219Z,9.80
2022-10-09T10:47:50.586Z,9.60
2022-10-09T10:52:56.514Z,9.60
2022-10-09T10:57:58.732Z,11.00
2022-10-09T11:02:48.358Z,11.00
2022-10-09T11:07:59.097Z,9.10
2022-10-09T11:12:56.821Z,9.10
2022-10-09T11:17:54.828Z,6.00
2022-10-09T11:23:04.717Z,6.00
2022-10-09T11:27:53.645Z,7.70
2022-10-09T11:32:54.730Z,7.70
2022-10-09T11:38:00.142Z,9.40
2022-10-09T11:42:57.810Z,9.40
2022-10-09T11:47:58.362Z,7.40
2022-10-09T11:52:56.062Z,7.40
2022-10-09T11:57:47.147Z,7.90
2022-10-09T12:02:56.974Z,7.90
2022-10-09T12:12:55.259Z,8.90
2022-10-09T12:17:48.727Z,7.10
2022-10-09T12:27:46.912Z,7.40
2022-10-09T12:32:50.469Z,7.40
2022-10-09T12:37:46.462Z,8.10
2022-10-09T12:42:47.357Z,8.10
2022-10-09T12:47:46.439Z,7.20
2022-10-09T12:52:49.012Z,7.20
2022-10-09T12:57:46.523Z,6.40
2022-10-09T13:02:46.722Z,6.40
2022-10-09T13:07:53.067Z,7.60
2022-10-09T13:12:55.361Z,7.60
2022-10-09T13:17:46.999Z,8.60
2022-10-09T13:22:59.239Z,8.60
2022-10-09T13:32:46.437Z,8.20
2022-10-09T13:37:46.708Z,8.80
2022-10-09T13:42:51.308Z,8.80
2022-10-09T13:47:46.989Z,8.30
2022-10-09T13:52:46.490Z,8.30
2022-10-09T13:57:46.477Z,10.00
2022-10-09T14:02:46.572Z,10.00
2022-10-09T14:07:47.264Z,8.80
2022-10-09T14:12:46.795Z,8.80
2022-10-09T14:17:46.958Z,7.70
2022-10-09T14:37:46.638Z,8.40
2022-10-09T14:47:46.717Z,9.00
2022-10-09T14:52:46.870Z,9.00
2022-10-09T14:57:46.686Z,7.00
2022-10-09T15:12:46.754Z,8.60
2022-10-09T15:22:46.735Z,8.30
2022-10-09T15:32:46.814Z,7.70
2022-10-09T15:37:47.975Z,8.00
2022-10-09T15:42:46.903Z,8.00
2022-10-09T15:47:51.270Z,9.90
2022-10-09T15:52:47.073Z,9.90
2022-10-09T15:57:46.815Z,7.90
2022-10-09T16:17:49.710Z,8.30
2022-10-09T16:22:47.230Z,8.30
2022-10-09T16:32:47.472Z,7.20
2022-10-09T16:37:46.921Z,8.40
2022-10-09T16:42:48.158Z,8.40
2022-10-09T16:47:47.656Z,7.50
2022-10-09T16:52:47.077Z,7.50
2022-10-09T16:57:47.350Z,8.00
2022-10-09T17:02:46.984Z,8.00
2022-10-09T17:12:47.000Z,10.20
2022-10-09T17:17:47.374Z,10.60
2022-10-09T17:32:47.564Z,10.60
2022-10-09T17:42:47.323Z,11.70
2022-10-09T17:47:48.123Z,13.50
2022-10-09T17:57:47.652Z,11.10
2022-10-09T18:02:47.431Z,11.10
2022-10-09T18:07:47.561Z,10.30
2022-10-09T18:12:47.230Z,10.30
2022-10-09T18:17:47.623Z,11.10
2022-10-09T18:22:47.454Z,11.10
2022-10-09T18:27:47.410Z,12.40
2022-10-09T18:32:47.746Z,12.40
2022-10-09T18:37:47.306Z,14.10
2022-10-09T18:42:47.598Z,14.10
2022-10-09T18:47:47.580Z,18.40
2022-10-09T18:57:47.463Z,17.50
2022-10-09T19:07:47.690Z,23.00
2022-10-09T19:12:48.017Z,23.00
2022-10-09T19:17:47.636Z,18.10
2022-10-09T19:42:47.705Z,15.80
2022-10-09T19:47:51.035Z,18.00
2022-10-09T19:57:48.263Z,12.90
2022-10-09T20:02:47.702Z,12.90
2022-10-09T20:07:47.816Z,14.50
2022-10-09T20:12:48.123Z,14.50
2022-10-09T20:17:48.154Z,14.20
2022-10-09T20:22:47.916Z,14.20
2022-10-09T20:27:47.553Z,11.80
2022-10-09T20:32:48.428Z,11.80
2022-10-09T20:47:49.187Z,11.40
2022-10-09T20:52:48.000Z,11.40
2022-10-09T20:57:50.691Z,11.60
2022-10-09T21:02:47.813Z,11.60
2022-10-09T21:07:47.794Z,9.50
2022-10-09T21:17:47.662Z,10.80
2022-10-09T21:22:47.978Z,10.80
2022-10-09T21:27:47.653Z,9.90
2022-10-09T21:32:47.872Z,9.90
2022-10-09T21:47:47.712Z,10.20
2022-10-09T21:52:48.641Z,10.20
2022-10-09T21:57:48.106Z,10.80
2022-10-09T22:07:47.833Z,12.00
2022-10-09T22:12:48.153Z,12.00
2022-10-09T22:17:47.793Z,12.20
2022-10-09T22:27:47.888Z,10.30
2022-10-09T22:32:47.962Z,10.30
2022-10-09T22:37:48.430Z,11.30
2022-10-09T22:42:48.239Z,11.30
2022-10-09T22:47:47.887Z,10.90
2022-10-09T23:02:48.366Z,13.90
2022-10-09T23:07:47.942Z,11.20
2022-10-09T23:12:48.246Z,11.20
2022-10-09T23:17:47.924Z,11.60
2022-10-09T23:27:47.969Z,13.60
2022-10-09T23:32:50.944Z,13.60
2022-10-09T23:42:48.278Z,12.70
2022-10-09T23:47:48.012Z,11.60
2022-10-09T23:52:48.288Z,11.60
2022-10-09T23:57:49.441Z,13.00
